Time;durP1;ratioP1;P1;durP2;ratioP2;P2;SDS_P1;SDS_P2;PMS_P1;PMS_P2;Temp;Humidity;BMP_temperature;BMP_pressure;BME280_temperature;BME280_humidity;BME280_pressure;Samples;Min_cycle;Max_cycle;Signal;HPM_P1;HPM_P2
2022/02/06 00:01:39;;;;;;;5.10;2.20;;;8.20;99.90;;;;;;5080753;28;20277;-64
2022/02/06 00:04:06;;;;;;;5.40;2.20;;;8.10;99.90;;;;;;5079145;28;20603;-62
2022/02/06 00:06:34;;;;;;;5.40;2.50;;;8.10;99.90;;;;;;5085725;28;20193;-63
2022/02/06 00:09:00;;;;;;;8.70;3.20;;;8.20;99.90;;;;;;5067802;28;20198;-64
2022/02/06 00:11:27;;;;;;;5.13;2.83;;;8.20;99.90;;;;;;5074276;28;20241;-62
2022/02/06 00:13:53;;;;;;;5.80;2.30;;;8.10;99.90;;;;;;5067420;28;20877;-63
2022/02/06 00:16:19;;;;;;;4.27;2.40;;;8.10;99.90;;;;;;5077398;28;20196;-62
2022/02/06 00:18:46;;;;;;;8.83;2.50;;;8.20;99.90;;;;;;5081154;28;20248;-65
2022/02/06 00:21:15;;;;;;;8.67;2.77;;;8.10;99.90;;;;;;5083886;28;20190;-62
2022/02/06 00:23:44;;;;;;;6.60;2.03;;;8.10;99.90;;;;;;5082285;28;20195;-62
2022/02/06 00:29:30;;;;;;;5.60;2.03;;;8.00;99.90;;;;;;5074386;28;20274;-61
2022/02/06 00:32:04;;;;;;;4.43;2.20;;;8.10;99.90;;;;;;5079352;28;20226;-65
2022/02/06 00:39:44;;;;;;;7.60;2.47;;;8.10;99.90;;;;;;5105653;28;20280;-62
2022/02/06 00:42:11;;;;;;;7.60;2.60;;;8.00;99.90;;;;;;5087460;28;20194;-62
2022/02/06 00:44:38;;;;;;;8.77;2.30;;;8.00;99.90;;;;;;5078293;28;20693;-63
2022/02/06 00:47:05;;;;;;;6.83;2.50;;;7.90;99.90;;;;;;5082892;28;20712;-62
2022/02/06 00:49:32;;;;;;;8.63;2.50;;;7.90;99.90;;;;;;5087056;28;20188;-64
2022/02/06 00:54:32;;;;;;;5.43;2.13;;;8.00;99.90;;;;;;5087264;28;20209;-64
2022/02/06 00:56:58;;;;;;;8.80;2.70;;;8.00;99.90;;;;;;5083617;28;20198;-62
2022/02/06 00:59:24;;;;;;;7.60;2.30;;;7.90;99.90;;;;;;5089901;28;20507;-62
2022/02/06 01:01:51;;;;;;;5.90;2.63;;;7.90;99.90;;;;;;5088437;28;20247;-63
2022/02/06 01:04:18;;;;;;;7.87;2.30;;;8.00;99.90;;;;;;5084682;28;20193;-62
2022/02/06 01:06:44;;;;;;;5.17;2.23;;;8.00;99.90;;;;;;5085062;28;20286;-63
2022/02/06 01:09:10;;;;;;;7.20;2.40;;;8.00;99.90;;;;;;5068016;28;20257;-63
2022/02/06 01:11:38;;;;;;;6.93;2.30;;;8.00;99.90;;;;;;5068444;28;20190;-64
2022/02/06 01:16:51;;;;;;;7.60;2.70;;;8.00;99.90;;;;;;5090241;28;20984;-63
2022/02/06 01:19:23;;;;;;;5.63;2.50;;;7.90;99.90;;;;;;5087874;28;20191;-62
2022/02/06 01:24:41;;;;;;;7.90;2.60;;;8.00;99.90;;;;;;5079203;28;20190;-64
2022/02/06 01:27:13;;;;;;;5.83;2.27;;;8.10;99.90;;;;;;5071752;28;20198;-62
2022/02/06 01:29:50;;;;;;;5.50;2.50;;;8.10;99.90;;;;;;5077641;28;20197;-62
2022/02/06 01:32:21;;;;;;;5.27;2.30;;;8.10;99.90;;;;;;5102145;28;20222;-62
2022/02/06 01:34:53;;;;;;;5.97;2.30;;;8.20;99.90;;;;;;5067560;28;20248;-61
2022/02/06 01:37:39;;;;;;;6.00;2.30;;;8.30;99.90;;;;;;5072009;28;20204;-62
2022/02/06 01:40:13;;;;;;;7.10;2.23;;;8.30;99.90;;;;;;5086854;28;20189;-63
2022/02/06 01:42:52;;;;;;;6.00;2.40;;;8.30;99.90;;;;;;5071497;28;20201;-63
2022/02/06 02:07:26;;;;;;;12.63;3.00;;;8.20;99.90;;;;;;5086921;28;20189;-61
2022/02/06 02:12:40;;;;;;;7.83;2.97;;;8.10;99.90;;;;;;5085677;28;20197;-62
2022/02/06 02:32:44;;;;;;;5.60;2.90;;;8.20;99.90;;;;;;5083363;28;20185;-62
2022/02/06 02:48:33;;;;;;;10.67;2.70;;;8.30;99.90;;;;;;5067966;28;20183;-61
2022/02/06 02:51:04;;;;;;;7.90;2.70;;;8.20;99.90;;;;;;5065741;28;20187;-61
2022/02/06 02:53:40;;;;;;;10.60;3.30;;;8.20;99.90;;;;;;5066652;28;20191;-63
2022/02/06 03:02:08;;;;;;;8.63;2.73;;;8.20;99.90;;;;;;5070382;28;20281;-61
2022/02/06 03:04:28;;;;;;;7.60;2.93;;;8.30;99.90;;;;;;5066750;28;20220;-61
2022/02/06 03:06:54;;;;;;;9.10;2.70;;;8.30;99.90;;;;;;5083503;28;20209;-61
2022/02/06 03:09:22;;;;;;;7.57;2.60;;;8.30;99.90;;;;;;5087467;28;20215;-62
2022/02/06 03:11:48;;;;;;;5.57;2.60;;;8.40;99.90;;;;;;5086829;28;20198;-62
2022/02/06 03:14:20;;;;;;;9.63;2.67;;;8.40;99.90;;;;;;5067389;28;20209;-62
2022/02/06 03:16:55;;;;;;;13.63;3.17;;;8.40;99.90;;;;;;5074446;28;20671;-61
2022/02/06 03:19:21;;;;;;;13.63;2.90;;;8.40;99.90;;;;;;5066802;28;20190;-63
2022/02/06 03:21:48;;;;;;;10.83;3.20;;;8.40;99.90;;;;;;5067386;28;20205;-63
2022/02/06 03:26:45;;;;;;;10.00;2.63;;;8.50;99.90;;;;;;5077288;28;20219;-63
2022/02/06 03:29:13;;;;;;;8.27;2.50;;;8.50;99.90;;;;;;5086640;28;20190;-64
2022/02/06 03:31:40;;;;;;;4.47;2.60;;;8.50;99.90;;;;;;5086433;28;20197;-63
2022/02/06 03:34:08;;;;;;;5.83;2.87;;;8.50;99.90;;;;;;5073785;28;20248;-63
2022/02/06 03:36:35;;;;;;;8.20;3.13;;;8.40;99.90;;;;;;5068853;28;20220;-62
2022/02/06 03:39:02;;;;;;;5.87;2.97;;;8.40;99.90;;;;;;5080683;28;20209;-63
2022/02/06 03:41:30;;;;;;;10.10;2.60;;;8.50;99.90;;;;;;5082006;28;20294;-62
2022/02/06 03:44:04;;;;;;;8.63;3.40;;;8.50;99.90;;;;;;5081926;28;20190;-65
2022/02/06 03:46:43;;;;;;;9.77;2.73;;;8.50;99.90;;;;;;5075365;28;20189;-63
2022/02/06 03:49:16;;;;;;;7.63;3.00;;;8.60;99.90;;;;;;5085910;28;20213;-63
2022/02/06 03:51:42;;;;;;;12.23;3.00;;;8.60;99.90;;;;;;5077407;28;20656;-63
2022/02/06 03:54:10;;;;;;;7.03;2.83;;;8.60;99.90;;;;;;5091478;28;20225;-63
2022/02/06 03:56:39;;;;;;;14.20;2.63;;;8.70;99.90;;;;;;5079978;28;20653;-64
2022/02/06 03:59:05;;;;;;;8.30;2.63;;;8.70;99.90;;;;;;5067512;28;20230;-64
2022/02/06 04:01:32;;;;;;;5.67;2.93;;;8.80;99.90;;;;;;5074964;28;20215;-63
2022/02/06 04:03:58;;;;;;;6.33;2.77;;;8.80;99.90;;;;;;5066744;28;20276;-65
2022/02/06 04:06:27;;;;;;;9.80;2.67;;;8.90;99.90;;;;;;5081749;28;20190;-63
2022/02/06 04:08:55;;;;;;;9.80;3.13;;;8.90;99.90;;;;;;5084689;28;20205;-63
2022/02/06 04:11:32;;;;;;;10.17;3.33;;;8.90;99.90;;;;;;5084176;28;20270;-62
2022/02/06 04:14:20;;;;;;;10.93;3.00;;;8.90;99.90;;;;;;5066637;28;20264;-63
2022/02/06 04:16:52;;;;;;;9.50;2.57;;;9.00;99.90;;;;;;5084103;28;20194;-63
2022/02/06 04:19:25;;;;;;;6.07;2.60;;;9.00;99.90;;;;;;5073110;28;20190;-63
2022/02/06 04:21:57;;;;;;;6.97;2.77;;;9.10;99.90;;;;;;5067612;28;20555;-61
2022/02/06 04:24:25;;;;;;;10.43;3.20;;;9.30;99.90;;;;;;5081078;28;20197;-62
2022/02/06 04:26:53;;;;;;;8.23;2.83;;;9.40;99.90;;;;;;5049035;28;20590;-64
2022/02/06 04:29:20;;;;;;;9.87;2.80;;;9.40;99.90;;;;;;5092390;28;20195;-63
2022/02/06 04:31:49;;;;;;;9.80;2.73;;;9.50;99.90;;;;;;5073614;28;20198;-64
2022/02/06 04:34:21;;;;;;;11.13;3.87;;;9.50;99.90;;;;;;5082838;28;20223;-62
2022/02/06 04:37:03;;;;;;;6.20;2.97;;;9.40;99.90;;;;;;5084821;28;20181;-65
2022/02/06 05:14:47;;;;;;;9.23;3.03;;;9.70;99.90;;;;;;5068638;28;20229;-61
2022/02/06 05:23:27;;;;;;;6.70;3.30;;;9.70;99.90;;;;;;5064642;28;20186;-63
2022/02/06 05:28:44;;;;;;;6.57;3.20;;;9.70;99.90;;;;;;5080967;28;20217;-64
2022/02/06 05:31:14;;;;;;;9.10;3.57;;;9.70;99.90;;;;;;5088177;28;20495;-63
2022/02/06 05:33:41;;;;;;;4.90;3.10;;;9.70;99.90;;;;;;5068669;28;20590;-64
2022/02/06 05:36:09;;;;;;;9.63;3.70;;;9.80;99.90;;;;;;5067440;28;20220;-63
2022/02/06 05:38:35;;;;;;;12.17;3.87;;;9.80;99.90;;;;;;5071786;28;20732;-62
2022/02/06 05:41:03;;;;;;;12.37;3.30;;;9.70;99.90;;;;;;5068424;28;20734;-63
2022/02/06 05:43:30;;;;;;;8.17;3.63;;;9.70;99.90;;;;;;5067750;28;20195;-62
2022/02/06 05:45:56;;;;;;;8.47;3.60;;;9.80;99.90;;;;;;5068198;28;20254;-62
2022/02/06 05:48:22;;;;;;;13.93;4.27;;;9.80;99.90;;;;;;5071598;28;20195;-62
2022/02/06 05:50:48;;;;;;;6.93;3.33;;;9.80;99.90;;;;;;5075969;28;20195;-63
2022/02/06 05:53:17;;;;;;;17.37;4.00;;;9.80;99.90;;;;;;5083197;28;20186;-64
2022/02/06 05:55:47;;;;;;;9.07;3.60;;;9.90;99.90;;;;;;5086561;28;20364;-63
2022/02/06 05:58:13;;;;;;;6.30;3.20;;;9.90;99.90;;;;;;5064826;28;20175;-63
2022/02/06 06:00:39;;;;;;;9.43;3.47;;;9.90;99.90;;;;;;5079804;28;20286;-64
2022/02/06 06:03:08;;;;;;;7.87;3.40;;;9.90;99.90;;;;;;5084400;28;20298;-62
2022/02/06 06:05:35;;;;;;;6.50;3.50;;;9.90;99.90;;;;;;5085181;28;20217;-64
2022/02/06 06:08:02;;;;;;;6.30;3.50;;;9.90;99.90;;;;;;5073134;28;20190;-64
2022/02/06 06:10:29;;;;;;;6.57;3.43;;;9.90;99.90;;;;;;5076649;28;20186;-61
2022/02/06 06:12:56;;;;;;;11.47;3.17;;;9.90;99.90;;;;;;5073435;28;20229;-62
2022/02/06 06:15:23;;;;;;;5.43;3.00;;;9.90;99.90;;;;;;5066119;28;20308;-66
2022/02/06 06:17:49;;;;;;;6.67;3.13;;;10.00;99.90;;;;;;5075215;28;20884;-61
2022/02/06 06:20:19;;;;;;;7.23;2.83;;;10.00;99.90;;;;;;5071819;28;20273;-64
2022/02/06 06:22:47;;;;;;;10.27;3.47;;;10.00;99.90;;;;;;5085990;28;20190;-62
2022/02/06 06:25:13;;;;;;;7.40;3.50;;;10.00;99.90;;;;;;5094902;28;20735;-62
2022/02/06 06:27:40;;;;;;;12.33;3.93;;;10.10;99.90;;;;;;5085859;28;20191;-62
2022/02/06 06:30:07;;;;;;;8.70;3.60;;;10.00;99.90;;;;;;5072869;28;20194;-65
2022/02/06 06:32:33;;;;;;;13.43;4.03;;;10.00;99.90;;;;;;5077361;28;20244;-62
2022/02/06 06:35:02;;;;;;;8.50;4.53;;;10.10;99.90;;;;;;5081780;28;20222;-61
2022/02/06 06:37:28;;;;;;;9.77;5.03;;;10.10;99.90;;;;;;5085138;28;20247;-63
2022/02/06 06:39:55;;;;;;;16.50;7.87;;;10.10;99.90;;;;;;5081118;28;20206;-62
2022/02/06 06:42:21;;;;;;;17.03;9.27;;;10.10;99.90;;;;;;5075530;28;20205;-63
2022/02/06 06:44:48;;;;;;;10.23;5.37;;;10.10;99.90;;;;;;5075836;28;20280;-65
2022/02/06 06:47:14;;;;;;;11.80;5.20;;;10.10;99.90;;;;;;5065331;28;20187;-64
2022/02/06 06:49:41;;;;;;;10.93;5.10;;;10.10;99.90;;;;;;5077466;28;20224;-64
2022/02/06 06:52:08;;;;;;;8.10;4.50;;;10.10;99.90;;;;;;5085715;28;20553;-63
2022/02/06 06:54:38;;;;;;;6.30;4.40;;;10.10;99.90;;;;;;5078209;28;20215;-64
2022/02/06 07:04:48;;;;;;;8.33;4.37;;;10.10;99.90;;;;;;5085233;28;20185;-64
2022/02/06 07:07:15;;;;;;;9.50;4.23;;;10.20;99.90;;;;;;5081698;28;20607;-63
2022/02/06 07:09:42;;;;;;;8.10;4.50;;;10.20;99.90;;;;;;5067104;28;20198;-62
2022/02/06 07:12:13;;;;;;;13.07;4.93;;;10.30;99.90;;;;;;5066714;28;20536;-63
2022/02/06 07:14:45;;;;;;;12.67;5.23;;;10.30;99.90;;;;;;5066517;28;20645;-63
2022/02/06 07:17:13;;;;;;;15.27;5.43;;;10.40;99.90;;;;;;5065908;28;20635;-62
2022/02/06 07:19:40;;;;;;;15.67;5.50;;;10.40;99.90;;;;;;5081973;28;20193;-63
2022/02/06 07:22:11;;;;;;;12.27;5.03;;;10.50;99.90;;;;;;5095051;27;20197;-63
2022/02/06 07:24:38;;;;;;;16.87;5.33;;;10.50;99.90;;;;;;5088718;28;20198;-63
2022/02/06 07:27:17;;;;;;;18.80;6.67;;;10.60;99.90;;;;;;5084696;28;20901;-63
2022/02/06 07:29:43;;;;;;;16.53;5.53;;;10.60;99.90;;;;;;5070410;28;20179;-64
2022/02/06 07:32:10;;;;;;;16.87;5.87;;;10.60;99.90;;;;;;5075782;28;20218;-63
2022/02/06 07:34:37;;;;;;;11.13;5.90;;;10.70;99.90;;;;;;5085035;28;20233;-63
2022/02/06 07:37:04;;;;;;;15.77;6.40;;;10.70;99.90;;;;;;5080872;28;20568;-64
2022/02/06 07:39:30;;;;;;;21.30;5.97;;;10.80;99.90;;;;;;5074683;28;20201;-64
2022/02/06 07:41:56;;;;;;;11.10;6.20;;;10.80;99.90;;;;;;5077421;28;20203;-65
2022/02/06 07:44:23;;;;;;;17.13;6.37;;;10.80;99.90;;;;;;5082367;28;20726;-62
2022/02/06 07:46:50;;;;;;;15.27;5.53;;;10.80;99.90;;;;;;5095504;28;20218;-63
2022/02/06 07:49:17;;;;;;;15.97;5.93;;;10.80;99.90;;;;;;5083902;28;20198;-62
2022/02/06 07:51:43;;;;;;;13.97;6.07;;;10.80;99.90;;;;;;5091829;28;20768;-64
2022/02/06 07:54:10;;;;;;;18.50;5.70;;;10.80;99.90;;;;;;5083592;28;20231;-63
2022/02/06 07:56:36;;;;;;;15.97;6.27;;;10.80;99.90;;;;;;5076810;28;20186;-64
2022/02/06 07:59:02;;;;;;;21.37;5.57;;;10.80;99.90;;;;;;5082145;28;20305;-63
2022/02/06 08:01:29;;;;;;;13.03;5.23;;;10.70;99.90;;;;;;5076765;28;20204;-63
2022/02/06 08:03:55;;;;;;;16.03;5.60;;;10.80;99.90;;;;;;5066660;28;20665;-64
2022/02/06 08:06:21;;;;;;;25.53;5.93;;;10.70;99.90;;;;;;5090355;28;20203;-63
2022/02/06 08:08:48;;;;;;;16.97;6.17;;;10.70;99.90;;;;;;5085397;28;20190;-64
2022/02/06 08:11:15;;;;;;;14.20;5.80;;;10.70;99.90;;;;;;5085014;28;20271;-64
2022/02/06 08:13:46;;;;;;;17.33;5.83;;;10.70;99.90;;;;;;5083368;28;20297;-63
2022/02/06 08:16:12;;;;;;;11.57;5.80;;;10.70;99.90;;;;;;5101837;28;20219;-64
2022/02/06 08:18:40;;;;;;;11.77;5.93;;;10.70;99.90;;;;;;5076927;28;20233;-63
2022/02/06 08:21:09;;;;;;;13.27;5.80;;;10.70;99.90;;;;;;5075165;28;20720;-63
2022/02/06 08:23:36;;;;;;;16.87;5.60;;;10.70;99.90;;;;;;5078824;28;20248;-63
2022/02/06 08:26:04;;;;;;;17.53;5.87;;;10.70;99.90;;;;;;5074006;28;20808;-64
2022/02/06 08:28:31;;;;;;;15.57;5.30;;;10.70;99.90;;;;;;5088942;28;20185;-67
2022/02/06 08:30:59;;;;;;;14.97;5.70;;;10.70;99.90;;;;;;5069767;28;20607;-62
2022/02/06 08:33:26;;;;;;;15.80;5.20;;;10.70;99.90;;;;;;5062836;28;20212;-63
2022/02/06 08:35:52;;;;;;;11.73;4.73;;;10.70;99.90;;;;;;5072494;28;20318;-62
2022/02/06 08:38:19;;;;;;;14.73;4.97;;;10.70;99.90;;;;;;5068442;28;20654;-64
2022/02/06 08:40:46;;;;;;;8.07;4.40;;;10.70;99.90;;;;;;5081413;28;20559;-62
2022/02/06 08:43:12;;;;;;;11.77;4.70;;;10.70;99.90;;;;;;5071189;28;20677;-63
2022/02/06 08:45:39;;;;;;;11.67;4.47;;;10.70;99.90;;;;;;5055099;28;20183;-62
2022/02/06 08:48:05;;;;;;;9.30;3.93;;;10.70;99.90;;;;;;5066260;28;20202;-61
2022/02/06 08:50:33;;;;;;;5.77;3.80;;;10.70;99.90;;;;;;5078349;28;20202;-62
2022/02/06 08:53:00;;;;;;;9.43;4.00;;;10.70;99.90;;;;;;5080486;28;20263;-63
2022/02/06 08:55:29;;;;;;;8.47;3.50;;;10.70;99.90;;;;;;5069073;28;20246;-64
2022/02/06 08:57:56;;;;;;;11.90;3.50;;;10.80;99.90;;;;;;5068397;28;21050;-65
2022/02/06 09:00:25;;;;;;;10.67;3.10;;;10.70;99.90;;;;;;5087035;28;20202;-64
2022/02/06 09:02:53;;;;;;;7.70;3.20;;;10.70;99.90;;;;;;5076386;28;20197;-62
2022/02/06 09:05:22;;;;;;;7.90;2.83;;;10.70;99.90;;;;;;5076782;28;20258;-65
2022/02/06 09:07:48;;;;;;;9.03;2.50;;;10.70;99.90;;;;;;5072728;28;20199;-64
2022/02/06 09:10:19;;;;;;;7.30;2.53;;;10.70;99.90;;;;;;5067091;28;20931;-64
2022/02/06 09:12:53;;;;;;;7.20;2.80;;;10.70;99.90;;;;;;5075874;28;20216;-63
2022/02/06 09:15:21;;;;;;;5.87;2.30;;;10.80;99.90;;;;;;5076389;28;20224;-62
2022/02/06 09:17:48;;;;;;;6.50;2.37;;;10.80;99.90;;;;;;5062819;28;20186;-62
2022/02/06 09:20:18;;;;;;;5.43;2.40;;;10.80;99.90;;;;;;5069927;28;20198;-63
2022/02/06 09:22:44;;;;;;;7.43;2.60;;;10.80;99.90;;;;;;5074938;28;20465;-64
2022/02/06 09:25:13;;;;;;;5.70;2.27;;;10.80;99.90;;;;;;5056190;28;20220;-65
2022/02/06 09:27:42;;;;;;;6.37;2.40;;;10.90;99.90;;;;;;5082086;28;20191;-65
2022/02/06 09:30:17;;;;;;;6.43;2.90;;;10.90;99.90;;;;;;5075067;28;20770;-62
2022/02/06 09:35:11;;;;;;;4.63;2.50;;;10.90;99.90;;;;;;5090555;28;20272;-63
2022/02/06 09:37:39;;;;;;;8.90;2.73;;;10.90;99.90;;;;;;5087187;28;20200;-63
2022/02/06 09:40:09;;;;;;;7.40;3.60;;;11.00;99.90;;;;;;5078526;28;20267;-63
2022/02/06 09:42:38;;;;;;;6.17;3.23;;;11.00;99.90;;;;;;5069116;28;20698;-63
2022/02/06 09:45:06;;;;;;;6.83;3.40;;;11.10;99.90;;;;;;5082865;28;20201;-61
2022/02/06 09:47:36;;;;;;;8.70;3.47;;;11.20;99.90;;;;;;5080516;28;20193;-62
2022/02/06 09:50:05;;;;;;;11.83;4.20;;;11.30;99.90;;;;;;5067707;28;20912;-62
2022/02/06 09:52:33;;;;;;;6.43;3.77;;;11.40;99.90;;;;;;5073331;28;20743;-65
2022/02/06 09:55:09;;;;;;;5.50;3.30;;;11.40;99.90;;;;;;5083651;28;20301;-65
2022/02/06 09:58:14;;;;;;;7.60;3.60;;;11.40;99.90;;;;;;5092755;28;20268;-66
2022/02/06 10:00:29;;;;;;;10.07;3.67;;;11.30;99.90;;;;;;5089025;28;20658;-64
2022/02/06 10:03:05;;;;;;;7.57;3.43;;;11.30;99.90;;;;;;5072452;28;20561;-65
2022/02/06 10:05:35;;;;;;;10.10;3.93;;;11.20;99.90;;;;;;5072082;28;20191;-65
2022/02/06 10:08:31;;;;;;;9.77;3.57;;;11.10;99.90;;;;;;5049662;28;20179;-64
2022/02/06 10:11:10;;;;;;;10.17;3.60;;;11.10;99.90;;;;;;5107117;27;20523;-63
2022/02/06 10:13:39;;;;;;;14.73;3.63;;;11.10;99.90;;;;;;5068565;28;20213;-66
2022/02/06 10:16:10;;;;;;;9.03;3.10;;;11.10;99.90;;;;;;5070145;28;20363;-64
2022/02/06 10:18:37;;;;;;;13.80;3.10;;;11.10;99.90;;;;;;5079382;28;20810;-64
2022/02/06 10:21:06;;;;;;;8.67;3.30;;;11.00;99.90;;;;;;5083307;28;20192;-66
2022/02/06 10:23:49;;;;;;;10.03;3.33;;;11.00;99.90;;;;;;5073968;28;20267;-65
2022/02/06 10:31:49;;;;;;;13.50;3.23;;;11.10;99.90;;;;;;5093689;28;20186;-67
2022/02/06 10:34:25;;;;;;;11.60;3.20;;;11.10;99.90;;;;;;5078539;28;20305;-65
2022/02/06 10:37:08;;;;;;;11.53;2.83;;;11.10;99.90;;;;;;5073054;28;20195;-66
2022/02/06 10:39:39;;;;;;;8.47;3.10;;;11.20;99.90;;;;;;5072866;28;20646;-65
2022/02/06 10:42:20;;;;;;;9.33;2.53;;;11.20;99.90;;;;;;5074701;28;20210;-65
2022/02/06 10:44:47;;;;;;;8.47;2.90;;;11.20;99.90;;;;;;5083013;28;20684;-65
2022/02/06 10:47:14;;;;;;;12.43;2.97;;;11.30;99.90;;;;;;5084544;28;20197;-66
2022/02/06 10:49:40;;;;;;;11.40;2.60;;;11.20;99.90;;;;;;5078507;28;20197;-66
2022/02/06 10:52:09;;;;;;;8.40;2.40;;;11.30;99.90;;;;;;5051991;28;20211;-66
2022/02/06 10:54:38;;;;;;;6.23;2.20;;;11.20;99.90;;;;;;5068023;28;20225;-65
2022/02/06 10:57:10;;;;;;;6.53;2.00;;;11.20;99.90;;;;;;5083429;28;20193;-66
2022/02/06 10:59:52;;;;;;;6.97;2.23;;;11.20;99.90;;;;;;5086455;28;20189;-65
2022/02/06 11:02:37;;;;;;;8.90;2.50;;;11.20;99.90;;;;;;5075700;28;20194;-66
2022/02/06 11:05:21;;;;;;;5.87;2.10;;;11.20;99.90;;;;;;5075151;28;20221;-66
2022/02/06 11:07:57;;;;;;;6.20;2.63;;;11.20;99.90;;;;;;5076932;28;20195;-63
2022/02/06 11:10:27;;;;;;;6.23;2.50;;;11.20;99.90;;;;;;5058704;28;20194;-61
2022/02/06 11:12:59;;;;;;;7.03;2.33;;;11.20;99.90;;;;;;5078764;28;20344;-64
2022/02/06 11:15:33;;;;;;;10.80;2.90;;;11.20;99.90;;;;;;5079620;28;20758;-62
2022/02/06 11:18:25;;;;;;;10.13;2.70;;;11.20;99.90;;;;;;5076699;28;20590;-61
2022/02/06 11:21:03;;;;;;;8.20;2.40;;;11.20;99.90;;;;;;5081472;28;20194;-64
2022/02/06 11:23:39;;;;;;;9.03;2.33;;;11.20;99.90;;;;;;5079838;28;20225;-63
2022/02/06 11:26:22;;;;;;;7.30;1.87;;;11.20;99.90;;;;;;5076401;28;20201;-63
2022/02/06 11:28:53;;;;;;;6.70;2.30;;;11.20;99.90;;;;;;5078207;28;20514;-65
2022/02/06 11:31:20;;;;;;;7.60;2.20;;;11.20;99.90;;;;;;5085428;28;20307;-62
2022/02/06 11:33:49;;;;;;;12.47;2.47;;;11.20;99.90;;;;;;5084980;28;20206;-62
2022/02/06 11:36:22;;;;;;;6.10;1.80;;;11.20;99.90;;;;;;5078904;28;20239;-66
2022/02/06 11:45:18;;;;;;;15.00;2.20;;;11.20;99.90;;;;;;5077360;28;20190;-66
2022/02/06 11:48:03;;;;;;;19.23;2.67;;;11.20;99.90;;;;;;5070926;28;20248;-65
2022/02/06 11:50:33;;;;;;;11.83;2.47;;;11.20;99.90;;;;;;5077178;28;20193;-64
2022/02/06 11:53:06;;;;;;;6.90;2.03;;;11.20;99.90;;;;;;5076923;28;20761;-63
2022/02/06 11:55:49;;;;;;;14.23;2.40;;;11.20;99.90;;;;;;5064173;28;20210;-63
2022/02/06 11:58:31;;;;;;;8.73;2.03;;;11.20;99.90;;;;;;5080251;28;20196;-62
2022/02/06 12:01:18;;;;;;;11.63;2.80;;;11.20;99.90;;;;;;5074544;28;20197;-60
2022/02/06 12:04:01;;;;;;;15.43;3.03;;;11.20;99.90;;;;;;5076775;28;20841;-63
2022/02/06 12:06:47;;;;;;;13.87;2.83;;;11.20;99.90;;;;;;5079333;28;20187;-62
2022/02/06 12:09:21;;;;;;;14.57;2.90;;;11.20;99.90;;;;;;5068693;28;20709;-61
2022/02/06 12:12:12;;;;;;;12.13;2.60;;;11.10;99.90;;;;;;5087739;28;20183;-64
2022/02/06 12:14:47;;;;;;;8.00;2.17;;;11.10;99.90;;;;;;5094241;28;20678;-61
2022/02/06 12:20:14;;;;;;;11.60;2.83;;;11.10;99.90;;;;;;5083772;28;20189;-63
2022/02/06 12:22:51;;;;;;;12.87;2.43;;;11.10;99.90;;;;;;5067958;28;20190;-62
2022/02/06 12:25:36;;;;;;;10.90;2.50;;;11.10;99.90;;;;;;5060639;28;20194;-62
2022/02/06 12:28:17;;;;;;;12.77;3.03;;;11.10;99.90;;;;;;5086625;28;20193;-64
2022/02/06 12:30:48;;;;;;;9.57;2.33;;;11.00;99.90;;;;;;5083447;28;20240;-63
2022/02/06 12:33:41;;;;;;;15.23;2.07;;;11.00;99.90;;;;;;5090413;28;20216;-65
2022/02/06 12:38:53;;;;;;;9.03;2.37;;;11.00;99.90;;;;;;5083314;28;20190;-62
2022/02/06 12:41:29;;;;;;;13.23;2.73;;;11.00;99.90;;;;;;5076557;28;20233;-65
2022/02/06 12:44:03;;;;;;;14.60;2.27;;;11.00;99.90;;;;;;5078150;28;20201;-65
2022/02/06 12:46:31;;;;;;;10.97;2.50;;;11.00;99.90;;;;;;5077961;28;20284;-62
2022/02/06 12:49:04;;;;;;;7.33;2.27;;;11.00;99.90;;;;;;5080223;28;20252;-62
2022/02/06 12:51:35;;;;;;;7.97;2.33;;;11.00;99.90;;;;;;5062026;28;20186;-63
2022/02/06 12:54:10;;;;;;;8.10;2.10;;;11.00;99.90;;;;;;5077696;28;20190;-64
2022/02/06 12:56:39;;;;;;;9.57;2.63;;;11.00;99.90;;;;;;5080797;28;20229;-63
2022/02/06 12:59:06;;;;;;;13.67;2.63;;;11.00;99.90;;;;;;5088654;28;20178;-62
2022/02/06 13:01:43;;;;;;;7.67;2.00;;;11.00;99.90;;;;;;5072581;28;20190;-64
2022/02/06 13:04:22;;;;;;;6.13;2.20;;;11.00;99.90;;;;;;5073421;28;20186;-65
2022/02/06 13:06:58;;;;;;;14.30;1.93;;;11.00;99.90;;;;;;5077304;28;20665;-62
2022/02/06 13:09:35;;;;;;;7.70;2.23;;;11.00;99.90;;;;;;5076160;28;20691;-63
2022/02/06 13:20:22;;;;;;;6.40;2.03;;;11.00;99.90;;;;;;5081477;28;20650;-63
2022/02/06 13:25:46;;;;;;;8.93;2.43;;;11.00;99.90;;;;;;5082954;28;20190;-64
2022/02/06 13:28:34;;;;;;;6.77;2.13;;;11.00;99.90;;;;;;5097269;28;20729;-64
2022/02/06 13:38:54;;;;;;;14.00;2.80;;;11.20;99.90;;;;;;5082321;28;20220;-65
2022/02/06 13:41:27;;;;;;;15.43;3.07;;;11.20;99.90;;;;;;5082957;28;20332;-64
2022/02/06 13:43:57;;;;;;;12.63;3.20;;;11.20;99.90;;;;;;5081017;28;20187;-64
2022/02/06 13:46:36;;;;;;;17.83;3.93;;;11.20;99.90;;;;;;5082026;28;20191;-64
2022/02/06 13:49:07;;;;;;;26.33;4.23;;;11.20;99.90;;;;;;5086437;28;20194;-65
2022/02/06 13:51:46;;;;;;;25.40;3.80;;;11.20;99.90;;;;;;5081119;28;20201;-63
2022/02/06 13:54:14;;;;;;;25.50;3.73;;;11.20;99.90;;;;;;5091229;28;20216;-63
2022/02/06 13:56:41;;;;;;;20.53;3.97;;;11.10;99.90;;;;;;5086741;28;20218;-66
2022/02/06 13:59:12;;;;;;;26.17;4.37;;;11.10;99.90;;;;;;5088435;28;20257;-62
2022/02/06 14:01:39;;;;;;;22.03;3.73;;;11.10;99.90;;;;;;5083838;28;20183;-63
2022/02/06 14:04:30;;;;;;;19.23;3.73;;;11.10;99.90;;;;;;5065299;28;20198;-63
2022/02/06 14:07:23;;;;;;;23.77;4.10;;;11.10;99.90;;;;;;5086343;28;20200;-65
2022/02/06 14:10:08;;;;;;;26.97;3.60;;;11.10;99.90;;;;;;5083636;28;20217;-63
2022/02/06 14:12:55;;;;;;;24.57;3.63;;;11.10;99.90;;;;;;5083922;28;20194;-62
2022/02/06 14:15:26;;;;;;;24.57;4.03;;;11.10;99.90;;;;;;5085552;28;20845;-65
2022/02/06 14:17:55;;;;;;;19.37;4.20;;;11.10;99.90;;;;;;5083366;28;20186;-62
2022/02/06 14:20:27;;;;;;;26.83;3.47;;;11.10;99.90;;;;;;5083112;28;20272;-64
2022/02/06 14:23:03;;;;;;;13.53;3.47;;;11.10;99.90;;;;;;5083671;28;20178;-64
2022/02/06 14:25:35;;;;;;;14.40;3.13;;;11.10;99.90;;;;;;5077404;28;20288;-65
2022/02/06 14:28:21;;;;;;;18.03;2.83;;;11.00;99.90;;;;;;5076977;28;20186;-63
2022/02/06 14:30:48;;;;;;;19.43;3.13;;;11.00;99.90;;;;;;5080456;28;20185;-63
2022/02/06 14:33:17;;;;;;;11.80;2.70;;;11.00;99.90;;;;;;5077625;28;20558;-64
2022/02/06 14:36:02;;;;;;;16.10;3.07;;;11.00;99.90;;;;;;5081964;28;20301;-64
2022/02/06 14:38:38;;;;;;;19.20;3.13;;;11.00;99.90;;;;;;5075794;28;20248;-64
2022/02/06 14:44:00;;;;;;;11.63;2.70;;;11.00;99.90;;;;;;5081861;28;20178;-62
2022/02/06 14:46:29;;;;;;;17.87;2.93;;;11.00;99.90;;;;;;5081134;28;20606;-66
2022/02/06 14:48:58;;;;;;;17.37;2.90;;;10.90;99.90;;;;;;5073927;28;20190;-63
2022/02/06 14:51:27;;;;;;;16.27;3.20;;;10.90;99.90;;;;;;5081911;28;21024;-64
2022/02/06 14:54:01;;;;;;;13.30;2.50;;;10.90;99.90;;;;;;5066672;28;20650;-64
2022/02/06 14:56:30;;;;;;;17.90;2.67;;;11.00;99.90;;;;;;5075985;28;20255;-63
2022/02/06 14:58:59;;;;;;;16.53;2.67;;;11.00;99.90;;;;;;5078099;28;20185;-63
2022/02/06 15:01:25;;;;;;;20.60;3.07;;;11.00;99.90;;;;;;5071066;28;20273;-64
2022/02/06 15:03:54;;;;;;;15.70;2.87;;;10.90;99.90;;;;;;5069658;28;20643;-64
2022/02/06 15:06:20;;;;;;;17.80;3.00;;;10.90;99.90;;;;;;5081792;28;20179;-61
2022/02/06 15:08:47;;;;;;;21.03;3.37;;;10.90;99.90;;;;;;5063221;28;20201;-63
2022/02/06 15:11:13;;;;;;;17.97;2.80;;;10.90;99.90;;;;;;5073118;28;20558;-64
2022/02/06 15:13:40;;;;;;;14.37;2.47;;;10.90;99.90;;;;;;5063062;28;20185;-65
2022/02/06 15:16:11;;;;;;;15.37;2.57;;;10.90;99.90;;;;;;5079054;28;20229;-66
2022/02/06 15:18:40;;;;;;;15.27;3.00;;;10.90;99.90;;;;;;5078312;28;20181;-63
2022/02/06 15:21:09;;;;;;;16.20;2.97;;;10.90;99.90;;;;;;5074474;28;20218;-63
2022/02/06 15:23:40;;;;;;;16.07;3.20;;;10.90;99.90;;;;;;5087697;28;20245;-65
2022/02/06 15:26:07;;;;;;;19.77;3.27;;;10.90;99.90;;;;;;5080384;28;20194;-64
2022/02/06 15:28:34;;;;;;;16.63;2.90;;;10.80;99.90;;;;;;5063693;28;20189;-63
2022/02/06 15:31:01;;;;;;;12.87;2.70;;;10.80;99.90;;;;;;5082002;28;20752;-63
2022/02/06 15:33:27;;;;;;;14.10;2.93;;;10.80;99.90;;;;;;5073719;28;20312;-62
2022/02/06 15:35:54;;;;;;;16.37;2.90;;;10.80;99.90;;;;;;5064131;28;20210;-64
2022/02/06 15:38:22;;;;;;;15.33;3.47;;;10.80;99.90;;;;;;5071154;28;20183;-65
2022/02/06 15:40:50;;;;;;;20.00;3.10;;;10.80;99.90;;;;;;5070588;28;20179;-62
2022/02/06 15:43:17;;;;;;;16.77;3.47;;;10.80;99.90;;;;;;5072327;28;20902;-65
2022/02/06 15:45:43;;;;;;;22.77;3.50;;;10.80;99.90;;;;;;5063979;28;20242;-64
2022/02/06 15:48:10;;;;;;;16.70;3.23;;;10.70;99.90;;;;;;5081475;28;20196;-62
2022/02/06 15:50:39;;;;;;;16.50;3.37;;;10.70;99.90;;;;;;5076489;28;20208;-64
2022/02/06 15:53:06;;;;;;;23.93;3.40;;;10.80;99.90;;;;;;5076560;28;20228;-64
2022/02/06 15:55:33;;;;;;;19.73;3.17;;;10.80;99.90;;;;;;5080897;28;20218;-63
2022/02/06 15:57:59;;;;;;;17.77;3.03;;;10.70;99.90;;;;;;5072461;28;20190;-64